Time;durP1;ratioP1;P1;durP2;ratioP2;P2;SDS_P1;SDS_P2;PMS_P1;PMS_P2;Temp;Humidity;BMP_temperature;BMP_pressure;BME280_temperature;BME280_humidity;BME280_pressure;Samples;Min_cycle;Max_cycle;Signal;HPM_P1;HPM_P2
2021/05/09 00:01:56;;;;;;;19.90;7.57;;;;;;;30.59;57.56;100890.16;5041249;28;69919;-35
2021/05/09 00:04:26;;;;;;;18.40;7.63;;;;;;;30.69;57.26;100895.88;5043537;28;65654;-35
2021/05/09 00:06:57;;;;;;;10.18;7.15;;;;;;;30.70;57.73;100897.56;5045429;28;69818;-35
2021/05/09 00:09:27;;;;;;;14.63;7.57;;;;;;;30.84;57.75;100908.31;5039630;28;65665;-35
2021/05/09 00:11:57;;;;;;;12.88;7.68;;;;;;;30.93;57.56;100917.84;5045490;28;70180;-36
2021/05/09 00:14:27;;;;;;;15.55;7.95;;;;;;;30.92;58.42;100914.31;5042563;28;65946;-37
2021/05/09 00:16:57;;;;;;;18.63;8.05;;;;;;;30.98;58.71;100914.47;5039221;28;68918;-36
2021/05/09 00:19:26;;;;;;;15.75;8.25;;;;;;;31.02;58.95;100919.22;5040255;28;66229;-36
2021/05/09 00:21:56;;;;;;;18.15;7.43;;;;;;;31.04;60.00;100919.84;5040908;28;69436;-37
2021/05/09 00:24:26;;;;;;;17.80;7.80;;;;;;;31.08;60.03;100918.34;5040645;28;66246;-36
2021/05/09 00:26:56;;;;;;;17.98;8.15;;;;;;;31.11;59.99;100915.19;5049250;28;70110;-36
2021/05/09 00:29:26;;;;;;;14.80;8.23;;;;;;;31.14;59.67;100914.75;5048335;28;66383;-36
2021/05/09 00:32:04;;;;;;;19.83;8.48;;;;;;;31.11;61.03;100923.31;5055194;28;69046;-37
2021/05/09 00:34:34;;;;;;;13.50;8.38;;;;;;;31.20;60.64;100923.88;5046661;28;65965;-37
2021/05/09 00:37:11;;;;;;;14.57;7.65;;;;;;;31.25;61.03;100917.78;5041842;28;69442;-36
2021/05/09 00:39:41;;;;;;;12.98;7.65;;;;;;;31.31;60.71;100914.19;5044490;28;66008;-35
2021/05/09 00:42:12;;;;;;;16.05;8.68;;;;;;;31.32;60.76;100907.75;5046397;28;69611;-35
2021/05/09 00:44:41;;;;;;;12.90;7.75;;;;;;;31.33;61.60;100912.09;5039392;28;65954;-35
2021/05/09 00:47:13;;;;;;;16.85;8.10;;;;;;;31.41;60.64;100927.28;5049583;28;70233;-36
2021/05/09 00:49:44;;;;;;;33.15;8.65;;;;;;;31.41;62.19;100925.41;5024286;28;65924;-35
2021/05/09 00:52:14;;;;;;;30.27;9.27;;;;;;;31.45;62.13;100925.78;5039079;28;69336;-36
2021/05/09 00:54:56;;;;;;;51.08;9.75;;;;;;;31.41;62.44;100916.44;5043251;28;65901;-35
2021/05/09 00:57:26;;;;;;;30.25;8.38;;;;;;;31.51;62.10;100931.16;5041341;28;69189;-35
2021/05/09 00:59:58;;;;;;;25.20;8.50;;;;;;;31.53;62.09;100934.44;5059560;28;66539;-36
2021/05/09 01:02:31;;;;;;;29.95;8.38;;;;;;;31.54;61.67;100935.28;5042648;28;69254;-35
2021/05/09 01:05:03;;;;;;;24.95;7.25;;;;;;;31.42;61.80;100905.34;5039335;28;65227;-35
2021/05/09 01:07:34;;;;;;;24.48;7.25;;;;;;;31.58;61.63;100934.59;5040283;28;70854;-35
2021/05/09 01:10:07;;;;;;;26.33;6.75;;;;;;;31.61;61.66;100936.88;5038860;28;66029;-36
2021/05/09 01:12:37;;;;;;;25.13;6.45;;;;;;;31.65;62.15;100936.41;5045616;28;70127;-34
2021/05/09 01:15:08;;;;;;;14.18;6.72;;;;;;;31.74;61.57;100940.50;5040432;28;65392;-36
2021/05/09 01:17:38;;;;;;;29.52;6.72;;;;;;;31.72;61.64;100946.16;5041430;28;69820;-36
2021/05/09 01:20:14;;;;;;;14.35;5.97;;;;;;;31.73;62.25;100947.81;5041605;28;65442;-35
2021/05/09 01:22:45;;;;;;;16.90;6.38;;;;;;;31.76;61.82;100943.81;5046272;28;69839;-37
2021/05/09 01:25:15;;;;;;;19.58;6.50;;;;;;;31.85;61.74;100950.63;5046411;28;65707;-34
2021/05/09 01:27:46;;;;;;;32.42;7.78;;;;;;;31.95;61.33;100948.22;5024533;28;70411;-37
2021/05/09 01:30:17;;;;;;;14.38;6.18;;;;;;;31.98;61.50;100942.38;5059967;28;66064;-37
2021/05/09 01:32:47;;;;;;;26.35;7.72;;;;;;;32.02;61.51;100935.41;5042929;28;67890;-37
2021/05/09 01:35:17;;;;;;;20.02;7.25;;;;;;;32.01;60.97;100936.47;5049063;28;65759;-38
2021/05/09 01:37:48;;;;;;;28.40;7.72;;;;;;;32.05;60.59;100943.09;5045201;28;69667;-36
2021/05/09 01:40:18;;;;;;;15.77;6.90;;;;;;;32.02;60.63;100940.84;5044349;28;65351;-38
2021/05/09 01:42:48;;;;;;;18.58;6.75;;;;;;;32.07;61.18;100942.03;5041484;28;70324;-37
2021/05/09 01:45:19;;;;;;;16.90;6.68;;;;;;;32.08;61.95;100946.41;5044611;28;65322;-40
2021/05/09 01:47:49;;;;;;;34.20;7.43;;;;;;;32.15;62.11;100949.88;5041355;28;70148;-37
2021/05/09 01:50:21;;;;;;;23.80;9.32;;;;;;;32.17;62.01;100942.34;5052693;28;64897;-38
2021/05/09 01:52:51;;;;;;;33.75;8.75;;;;;;;32.18;62.17;100946.69;5042155;27;70205;-38
2021/05/09 01:55:24;;;;;;;22.80;8.13;;;;;;;32.09;61.79;100932.59;5040413;28;65441;-39
2021/05/09 01:58:20;;;;;;;22.60;7.22;;;;;;;32.23;61.15;100944.13;5052076;28;69470;-40
2021/05/09 02:01:10;;;;;;;16.73;7.25;;;;;;;32.29;60.97;100943.25;5063754;28;66474;-39
2021/05/09 02:03:53;;;;;;;23.38;6.07;;;;;;;32.29;60.22;100940.53;5044166;28;68632;-40
2021/05/09 02:06:26;;;;;;;17.08;6.22;;;;;;;32.30;60.30;100939.47;5040340;28;66752;-40
2021/05/09 02:08:57;;;;;;;16.67;5.95;;;;;;;32.33;60.36;100940.88;5042247;28;71023;-42
2021/05/09 02:11:52;;;;;;;23.60;7.13;;;;;;;32.36;60.63;100938.53;5044068;28;66277;-40
2021/05/09 02:14:36;;;;;;;39.50;7.18;;;;;;;32.37;61.21;100939.34;5048056;28;69869;-39
2021/05/09 02:17:07;;;;;;;51.50;6.95;;;;;;;32.40;61.72;100939.75;5047885;28;66332;-40
2021/05/09 02:19:38;;;;;;;27.40;6.97;;;;;;;32.49;61.61;100949.25;5044593;28;70033;-40
2021/05/09 02:22:11;;;;;;;23.33;7.45;;;;;;;32.56;61.35;100959.19;5032952;28;66162;-39
2021/05/09 02:24:44;;;;;;;28.27;7.72;;;;;;;32.62;61.50;100942.78;5045787;28;70034;-37
2021/05/09 02:27:15;;;;;;;30.67;6.78;;;;;;;32.67;60.94;100948.38;5046596;28;66269;-37
2021/05/09 02:29:45;;;;;;;17.45;5.97;;;;;;;32.73;60.98;100938.47;5046550;28;69089;-36
2021/05/09 02:32:16;;;;;;;29.83;6.90;;;;;;;32.79;60.67;100937.56;5049776;28;65353;-36
2021/05/09 02:34:47;;;;;;;27.30;7.15;;;;;;;32.83;60.34;100927.88;5049796;28;69893;-37
2021/05/09 02:37:17;;;;;;;21.13;7.38;;;;;;;32.92;60.16;100931.91;5066900;28;65943;-37
2021/05/09 02:39:47;;;;;;;14.98;6.43;;;;;;;32.97;60.23;100925.78;5050310;28;70438;-37
2021/05/09 02:42:19;;;;;;;22.87;6.40;;;;;;;32.94;59.95;100924.34;5034782;28;66574;-37
2021/05/09 02:44:50;;;;;;;16.83;6.57;;;;;;;33.03;60.02;100922.16;5040307;28;69903;-37
2021/05/09 02:47:30;;;;;;;22.63;6.40;;;;;;;32.99;59.74;100911.94;5043275;28;65305;-37
2021/05/09 02:50:09;;;;;;;15.18;6.10;;;;;;;33.13;59.41;100924.31;5051530;28;70553;-37
2021/05/09 02:52:42;;;;;;;18.38;6.32;;;;;;;33.15;59.64;100919.44;5052667;28;66735;-37
2021/05/09 02:55:13;;;;;;;;;;;;;;;33.10;59.99;100919.34;5049676;28;69505;-37
2021/05/09 02:57:45;;;;;;;18.92;6.60;;;;;;;33.22;59.16;100920.16;5050237;28;66216;-38
2021/05/09 03:00:15;;;;;;;12.20;6.53;;;;;;;33.28;59.03;100913.78;5054115;28;69808;-38
2021/05/09 03:03:28;;;;;;;21.95;6.72;;;;;;;33.30;59.14;100932.59;5047196;28;66530;-37
2021/05/09 03:05:58;;;;;;;11.55;6.35;;;;;;;33.31;59.08;100929.63;5032853;28;70219;-36
2021/05/09 03:08:28;;;;;;;14.52;6.70;;;;;;;33.32;59.06;100920.41;5048176;28;66031;-37
2021/05/09 03:11:01;;;;;;;18.67;6.65;;;;;;;33.37;58.74;100928.66;5046711;28;69762;-36
2021/05/09 03:13:31;;;;;;;16.38;6.10;;;;;;;33.36;59.09;100924.31;5039483;28;65987;-36
2021/05/09 03:16:04;;;;;;;11.57;5.97;;;;;;;33.42;59.06;100924.44;5048290;28;70392;-37
2021/05/09 03:18:34;;;;;;;11.07;5.20;;;;;;;33.47;58.59;100911.78;5049978;28;66761;-37
2021/05/09 03:21:04;;;;;;;13.00;6.20;;;;;;;33.48;58.35;100913.41;5050664;28;70369;-37
2021/05/09 03:23:34;;;;;;;10.65;5.30;;;;;;;33.48;58.71;100907.16;5053313;28;65911;-36
2021/05/09 03:26:04;;;;;;;12.60;5.43;;;;;;;33.52;58.52;100902.91;5053969;28;69451;-36
2021/05/09 03:28:35;;;;;;;12.07;5.95;;;;;;;33.54;58.46;100907.09;5047949;28;66389;-36
2021/05/09 03:31:05;;;;;;;8.32;5.53;;;;;;;33.57;58.39;100900.31;5045329;28;69294;-36
2021/05/09 03:33:34;;;;;;;16.00;5.65;;;;;;;33.62;58.21;100897.72;5043292;28;66495;-36
2021/05/09 03:36:05;;;;;;;12.10;5.80;;;;;;;33.64;58.11;100895.59;5049479;28;69111;-37
2021/05/09 03:38:35;;;;;;;11.30;5.38;;;;;;;33.56;58.21;100882.34;5043676;28;66230;-37
2021/05/09 03:41:05;;;;;;;18.00;6.18;;;;;;;33.67;58.00;100895.09;5036833;28;69580;-38
2021/05/09 03:43:35;;;;;;;10.35;5.28;;;;;;;33.68;58.16;100891.31;5050413;28;66285;-37
2021/05/09 03:46:05;;;;;;;8.15;5.50;;;;;;;33.71;58.09;100879.97;5054477;28;69753;-38
2021/05/09 03:48:36;;;;;;;6.75;5.22;;;;;;;33.77;57.82;100886.34;5041495;28;66856;-37
2021/05/09 03:51:06;;;;;;;7.38;5.13;;;;;;;33.81;57.97;100891.06;5050505;28;71110;-37
2021/05/09 03:53:37;;;;;;;6.10;5.20;;;;;;;33.79;57.71;100876.88;5049592;28;65546;-37
2021/05/09 03:56:07;;;;;;;12.07;5.43;;;;;;;33.80;57.74;100878.53;5053627;28;70067;-37
2021/05/09 03:58:37;;;;;;;10.90;5.95;;;;;;;33.81;57.91;100874.72;5046778;28;66732;-37
2021/05/09 04:01:07;;;;;;;9.70;5.63;;;;;;;33.85;57.54;100864.22;5040815;28;70086;-38
2021/05/09 04:03:37;;;;;;;8.68;4.90;;;;;;;33.91;57.40;100867.84;5053696;27;66737;-37
2021/05/09 04:06:08;;;;;;;6.40;5.03;;;;;;;33.94;57.30;100862.75;5047317;28;69757;-36
2021/05/09 04:08:39;;;;;;;6.38;4.85;;;;;;;33.94;57.27;100860.03;5043178;28;65470;-37
2021/05/09 04:11:12;;;;;;;6.10;4.60;;;;;;;33.95;57.44;100847.25;5044432;28;70135;-37
2021/05/09 04:13:47;;;;;;;6.93;5.10;;;;;;;33.90;57.19;100833.53;5036563;28;65346;-37
2021/05/09 04:16:17;;;;;;;7.20;5.30;;;;;;;33.97;57.41;100845.13;5043007;28;69989;-37
2021/05/09 04:18:48;;;;;;;7.80;4.82;;;;;;;33.93;57.21;100833.03;5043158;28;66518;-37
2021/05/09 04:21:18;;;;;;;5.78;4.97;;;;;;;33.97;57.14;100834.22;5042912;28;69511;-38
2021/05/09 04:23:48;;;;;;;7.20;5.10;;;;;;;34.00;57.28;100822.84;5038951;28;65058;-37
2021/05/09 04:26:20;;;;;;;6.80;5.30;;;;;;;34.03;57.08;100822.38;5035723;28;71342;-37
2021/05/09 04:28:51;;;;;;;8.63;4.60;;;;;;;34.06;56.88;100816.47;5046299;28;68504;-37
2021/05/09 04:31:21;;;;;;;7.93;4.65;;;;;;;34.06;57.14;100810.19;5047237;28;67785;-36
2021/05/09 04:33:51;;;;;;;14.05;5.38;;;;;;;34.10;56.63;100804.03;5038339;28;65165;-38
2021/05/09 04:36:22;;;;;;;6.47;5.03;;;;;;;34.12;56.76;100804.59;5043931;28;69448;-37
2021/05/09 04:38:52;;;;;;;10.20;5.28;;;;;;;34.11;56.77;100792.06;5057640;28;66584;-37
2021/05/09 04:41:22;;;;;;;7.72;4.68;;;;;;;34.08;56.43;100784.38;5044895;28;69932;-37
2021/05/09 04:43:52;;;;;;;5.40;4.88;;;;;;;34.13;56.44;100781.75;5047020;28;65159;-37
2021/05/09 04:46:22;;;;;;;5.95;4.32;;;;;;;34.14;56.03;100777.97;5041786;28;69594;-37
2021/05/09 04:48:52;;;;;;;10.30;4.97;;;;;;;34.16;56.38;100764.94;5042935;28;66034;-37
2021/05/09 04:51:26;;;;;;;7.88;4.80;;;;;;;34.19;55.71;100764.44;5047172;28;69491;-36
2021/05/09 04:54:01;;;;;;;8.38;5.40;;;;;;;34.21;55.87;100754.13;5042765;28;66149;-38
2021/05/09 04:56:34;;;;;;;5.47;4.38;;;;;;;34.25;56.17;100744.38;5046668;27;70074;-37
2021/05/09 04:59:05;;;;;;;10.82;5.38;;;;;;;34.25;55.84;100741.66;5049471;28;66485;-38
2021/05/09 05:01:35;;;;;;;9.15;4.63;;;;;;;34.25;55.88;100740.84;5045948;28;69357;-36
2021/05/09 05:04:06;;;;;;;8.37;4.97;;;;;;;34.24;55.86;100742.75;5044796;28;66446;-37
2021/05/09 05:06:37;;;;;;;6.72;4.78;;;;;;;34.25;56.14;100733.50;5046032;28;69507;-38
2021/05/09 05:09:07;;;;;;;9.00;4.95;;;;;;;34.28;55.89;100731.38;5045873;28;64760;-38
2021/05/09 05:11:40;;;;;;;7.28;4.40;;;;;;;34.30;55.88;100721.88;5050322;28;69981;-37
2021/05/09 05:14:16;;;;;;;6.82;4.15;;;;;;;34.34;55.67;100724.91;5048954;28;66500;-37
2021/05/09 05:16:49;;;;;;;11.93;4.78;;;;;;;34.37;55.59;100725.25;5045570;28;68165;-37
2021/05/09 05:19:21;;;;;;;8.80;4.85;;;;;;;34.34;55.75;100714.03;5043180;28;65352;-39
2021/05/09 05:21:58;;;;;;;5.88;4.25;;;;;;;34.36;55.76;100707.28;5044989;27;70855;-39
2021/05/09 05:24:32;;;;;;;11.43;4.53;;;;;;;34.39;55.60;100711.41;5045554;28;66331;-38
2021/05/09 05:27:05;;;;;;;6.20;4.47;;;;;;;34.39;55.78;100703.22;5052011;28;69974;-37
2021/05/09 05:29:36;;;;;;;5.60;4.40;;;;;;;34.39;55.61;100706.78;5051080;28;66446;-37
2021/05/09 05:32:06;;;;;;;7.45;4.40;;;;;;;34.40;55.82;100693.97;5051071;27;69517;-36
2021/05/09 05:34:36;;;;;;;7.73;4.63;;;;;;;34.44;55.71;100689.69;5030072;28;66128;-36
2021/05/09 05:37:07;;;;;;;5.05;4.53;;;;;;;34.50;55.21;100696.84;5046601;28;70094;-37
2021/05/09 05:39:37;;;;;;;7.57;4.78;;;;;;;34.54;55.33;100687.09;5044300;28;65759;-38
2021/05/09 05:42:08;;;;;;;4.50;4.00;;;;;;;34.52;55.29;100681.09;5041182;28;69930;-39
2021/05/09 05:44:39;;;;;;;6.90;4.53;;;;;;;34.54;55.19;100681.66;5044551;28;65254;-37
2021/05/09 05:47:10;;;;;;;8.45;4.50;;;;;;;34.54;54.99;100673.47;5048048;28;70176;-37
2021/05/09 05:49:42;;;;;;;7.45;4.40;;;;;;;34.52;55.21;100672.94;5054549;28;65956;-37
2021/05/09 05:52:17;;;;;;;6.60;4.65;;;;;;;34.55;55.19;100671.56;5055642;28;69947;-37
2021/05/09 05:54:52;;;;;;;4.63;4.20;;;;;;;34.58;55.06;100662.97;5059719;28;65342;-36
2021/05/09 05:57:27;;;;;;;5.38;3.83;;;;;;;34.61;54.72;100659.72;5037441;28;68993;-37
2021/05/09 06:00:04;;;;;;;7.88;4.82;;;;;;;34.59;54.82;100646.34;5059578;28;65314;-37
2021/05/09 06:02:37;;;;;;;6.53;5.00;;;;;;;34.72;54.55;100650.63;5058313;28;71372;-37
2021/05/09 06:05:08;;;;;;;5.20;4.35;;;;;;;34.75;54.55;100638.41;5059066;28;66339;-37
2021/05/09 06:07:40;;;;;;;7.45;4.28;;;;;;;34.80;54.31;100642.00;5048795;28;70311;-37
2021/05/09 06:10:14;;;;;;;6.88;3.95;;;;;;;34.84;54.33;100645.88;5056089;28;66512;-37
2021/05/09 06:12:46;;;;;;;4.53;4.05;;;;;;;34.85;54.35;100638.50;5055212;28;70287;-37
2021/05/09 06:15:29;;;;;;;5.57;4.18;;;;;;;34.86;54.15;100629.28;5049441;28;66555;-37
2021/05/09 06:18:02;;;;;;;4.60;4.20;;;;;;;34.89;54.35;100621.41;5044693;28;69914;-37
2021/05/09 06:20:36;;;;;;;4.43;4.03;;;;;;;34.92;53.94;100617.34;5066250;28;65343;-37
2021/05/09 06:23:08;;;;;;;5.38;4.32;;;;;;;34.98;53.90;100613.59;5054470;28;69383;-38
2021/05/09 06:25:41;;;;;;;5.15;3.78;;;;;;;35.02;53.49;100601.13;5056125;28;65372;-37
2021/05/09 06:28:12;;;;;;;4.57;4.05;;;;;;;35.04;53.64;100607.13;5046342;28;70783;-37
2021/05/09 06:30:49;;;;;;;6.88;3.90;;;;;;;35.04;53.30;100598.13;5028158;28;65207;-37
2021/05/09 06:33:21;;;;;;;5.57;4.13;;;;;;;35.03;53.60;100589.13;5037001;28;70502;-36
2021/05/09 06:35:56;;;;;;;7.25;4.10;;;;;;;34.95;53.86;100562.34;5053149;28;65996;-37
2021/05/09 06:38:35;;;;;;;9.38;3.90;;;;;;;35.07;53.76;100576.66;5058963;28;70103;-37
2021/05/09 06:41:08;;;;;;;4.68;3.83;;;;;;;35.11;53.29;100572.34;5039949;28;66148;-37
2021/05/09 06:43:47;;;;;;;;;;;;;;;34.96;53.68;100563.16;5056864;28;70214;-37
2021/05/09 06:46:24;;;;;;;4.68;3.97;;;;;;;35.16;53.31;100547.06;5051879;28;65991;-37
2021/05/09 06:48:56;;;;;;;7.80;4.10;;;;;;;35.18;53.02;100546.78;5053170;28;69200;-37
2021/05/09 06:51:30;;;;;;;4.32;3.92;;;;;;;35.22;53.05;100543.28;5049638;28;65964;-38
2021/05/09 06:54:04;;;;;;;5.63;3.95;;;;;;;35.26;52.79;100530.78;5049013;28;69646;-37
2021/05/09 06:56:38;;;;;;;4.15;3.75;;;;;;;35.31;52.63;100527.28;5052795;28;66167;-37
2021/05/09 06:59:11;;;;;;;9.95;4.00;;;;;;;35.33;52.68;100515.03;5048717;28;70691;-37
2021/05/09 07:01:46;;;;;;;6.72;4.82;;;;;;;35.34;52.59;100510.41;5054749;28;66677;-38
2021/05/09 07:04:17;;;;;;;8.43;3.67;;;;;;;35.40;52.64;100503.91;5032726;28;70767;-36
2021/05/09 07:06:48;;;;;;;8.53;4.43;;;;;;;35.46;52.44;100502.84;5043312;28;66954;-37
2021/05/09 07:09:19;;;;;;;5.37;4.00;;;;;;;35.46;52.28;100508.31;5054907;28;68867;-38
2021/05/09 07:11:50;;;;;;;9.97;4.13;;;;;;;35.49;52.42;100506.97;5059422;28;68094;-37
2021/05/09 07:14:21;;;;;;;6.80;3.47;;;;;;;35.50;52.71;100505.91;5057461;28;72183;-38
2021/05/09 07:16:51;;;;;;;4.27;3.83;;;;;;;35.48;52.65;100506.16;5064597;28;66692;-38
2021/05/09 07:19:23;;;;;;;4.18;3.88;;;;;;;35.50;52.77;100509.44;5065864;27;70081;-37
2021/05/09 07:21:59;;;;;;;5.35;3.47;;;;;;;35.52;52.98;100501.81;5040887;28;65959;-37
2021/05/09 07:24:30;;;;;;;6.25;4.05;;;;;;;35.52;53.08;100499.09;5051767;28;69344;-36
2021/05/09 07:27:00;;;;;;;10.43;4.13;;;;;;;35.55;52.86;100495.84;5047451;28;65686;-37
2021/05/09 07:29:31;;;;;;;4.03;3.30;;;;;;;35.56;52.49;100499.41;5065993;28;69338;-37
2021/05/09 07:32:03;;;;;;;8.85;3.72;;;;;;;35.54;52.81;100488.72;5071945;28;65977;-38
2021/05/09 07:34:34;;;;;;;4.93;4.05;;;;;;;35.61;52.61;100495.88;5057422;27;70584;-37
2021/05/09 07:37:05;;;;;;;6.18;3.80;;;;;;;35.63;52.46;100485.53;5058284;28;66001;-37
2021/05/09 07:39:35;;;;;;;9.80;3.77;;;;;;;35.63;52.58;100474.63;5056141;28;70983;-37
2021/05/09 07:42:08;;;;;;;4.10;3.45;;;;;;;35.63;52.66;100477.38;5057849;28;66906;-36
2021/05/09 07:44:42;;;;;;;3.67;3.35;;;;;;;35.64;52.36;100487.22;5058015;28;70080;-37
2021/05/09 07:47:18;;;;;;;5.00;3.20;;;;;;;35.61;52.90;100476.78;5056721;28;66446;-37
2021/05/09 07:49:52;;;;;;;5.93;3.97;;;;;;;35.69;52.73;100484.50;5056502;28;69720;-37
2021/05/09 07:52:24;;;;;;;4.40;3.38;;;;;;;35.70;52.21;100481.50;5058046;28;67295;-37
2021/05/09 07:54:56;;;;;;;8.90;3.33;;;;;;;35.72;52.31;100478.53;5057330;28;70452;-37
2021/05/09 07:57:28;;;;;;;5.18;3.85;;;;;;;35.74;52.53;100476.34;5057499;28;66541;-37
2021/05/09 07:59:58;;;;;;;4.78;3.17;;;;;;;35.73;52.49;100478.25;5055734;28;69454;-37
2021/05/09 08:02:41;;;;;;;5.07;3.42;;;;;;;35.77;52.12;100475.81;5046104;28;66241;-36
2021/05/09 08:05:13;;;;;;;4.05;3.50;;;;;;;35.72;52.10;100462.16;5073647;28;69167;-37
2021/05/09 08:08:03;;;;;;;4.50;3.17;;;;;;;35.66;52.28;100458.59;5064270;28;64910;-37
2021/05/09 08:10:36;;;;;;;3.70;3.22;;;;;;;35.74;52.24;100457.25;5057377;28;69263;-38
2021/05/09 08:13:09;;;;;;;4.78;3.53;;;;;;;35.69;52.83;100440.84;5057377;28;66218;-38
2021/05/09 08:15:40;;;;;;;5.32;3.08;;;;;;;35.71;52.33;100449.59;5051926;28;70020;-37
2021/05/09 08:18:13;;;;;;;4.07;3.40;;;;;;;35.70;52.82;100453.41;5064900;28;66049;-37
2021/05/09 08:20:43;;;;;;;6.50;3.17;;;;;;;35.71;52.36;100449.59;5041520;28;70045;-37
2021/05/09 08:23:14;;;;;;;5.60;3.40;;;;;;;35.70;52.62;100450.69;5074152;27;66103;-38
2021/05/09 08:25:45;;;;;;;3.42;2.65;;;;;;;35.68;52.86;100461.03;5056903;27;69769;-36
2021/05/09 08:28:16;;;;;;;6.88;3.05;;;;;;;35.67;52.63;100464.84;5036663;28;66154;-37
2021/05/09 08:30:46;;;;;;;7.13;3.65;;;;;;;35.67;52.72;100453.94;5065954;28;69582;-38
2021/05/09 08:33:19;;;;;;;3.58;3.05;;;;;;;35.64;52.58;100460.75;5060116;28;66043;-37
2021/05/09 08:35:50;;;;;;;3.88;3.38;;;;;;;35.63;52.77;100447.34;5060687;28;69874;-37
2021/05/09 08:38:23;;;;;;;6.18;3.08;;;;;;;35.62;52.53;100452.00;5060110;28;65800;-38
2021/05/09 08:40:57;;;;;;;3.47;2.92;;;;;;;35.62;52.57;100456.63;5074581;28;70597;-39
2021/05/09 08:43:28;;;;;;;3.10;2.90;;;;;;;35.58;52.72;100451.72;5069997;28;65937;-37
2021/05/09 08:45:59;;;;;;;4.00;3.13;;;;;;;35.58;52.50;100451.72;5077768;27;69824;-36
2021/05/09 08:48:31;;;;;;;4.93;3.22;;;;;;;35.55;52.57;100449.47;5061184;28;65333;-37
2021/05/09 08:51:06;;;;;;;3.45;2.97;;;;;;;35.54;53.02;100445.09;5073623;28;69822;-38
2021/05/09 08:53:36;;;;;;;6.75;2.85;;;;;;;35.56;52.43;100459.31;5056060;28;65574;-37
2021/05/09 08:56:08;;;;;;;3.37;3.07;;;;;;;35.55;52.57;100462.25;5059571;28;70926;-37
2021/05/09 08:58:40;;;;;;;9.07;2.80;;;;;;;35.54;52.87;100466.09;5041599;28;64987;-37
2021/05/09 09:01:11;;;;;;;;;;;;;;;35.45;52.76;100465.75;5054597;28;69870;-37
2021/05/09 09:03:42;;;;;;;4.50;2.80;;;;;;;35.53;52.70;100459.81;5060873;28;65830;-37
2021/05/09 09:06:18;;;;;;;5.95;3.22;;;;;;;35.50;52.63;100463.06;5060141;28;69060;-37
2021/05/09 09:08:53;;;;;;;7.97;3.00;;;;;;;35.40;52.52;100443.09;5011388;28;65914;-37
2021/05/09 09:11:27;;;;;;;8.00;2.70;;;;;;;35.35;52.66;100441.13;5052633;28;69023;-37
2021/05/09 09:14:13;;;;;;;4.13;2.95;;;;;;;35.43;52.69;100469.81;5059483;28;66538;-37
2021/05/09 09:16:44;;;;;;;9.55;3.08;;;;;;;35.43;52.64;100475.28;5047565;28;70125;-36
2021/05/09 09:19:15;;;;;;;5.20;2.70;;;;;;;35.41;52.86;100472.84;5057069;28;67304;-36
2021/05/09 09:21:54;;;;;;;4.43;2.75;;;;;;;35.39;52.70;100469.53;5059495;28;70218;-38
2021/05/09 09:24:25;;;;;;;6.32;2.30;;;;;;;35.39;52.58;100460.53;5041424;28;65433;-37
2021/05/09 09:26:57;;;;;;;14.73;2.92;;;;;;;35.34;52.70;100462.13;5045311;28;69135;-37
2021/05/09 09:29:29;;;;;;;4.90;2.80;;;;;;;35.25;53.04;100451.97;5056096;28;67139;-36
2021/05/09 09:32:04;;;;;;;3.70;2.65;;;;;;;35.33;52.99;100465.94;5058315;28;70504;-36
2021/05/09 09:34:50;;;;;;;5.32;2.25;;;;;;;35.19;52.71;100437.47;5055409;28;66573;-36
2021/05/09 09:37:21;;;;;;;2.80;2.22;;;;;;;35.29;52.64;100442.19;5052604;28;70083;-36
2021/05/09 09:39:59;;;;;;;3.50;2.10;;;;;;;35.27;52.71;100438.88;5059638;28;66252;-37
2021/05/09 09:42:42;;;;;;;5.50;2.25;;;;;;;35.22;52.74;100447.88;5058966;28;69809;-37
2021/05/09 09:45:19;;;;;;;8.52;2.42;;;;;;;35.21;52.82;100446.19;5046873;28;65978;-36
2021/05/09 09:48:00;;;;;;;4.45;2.63;;;;;;;35.21;52.79;100446.19;5058034;28;70074;-38
2021/05/09 09:50:41;;;;;;;5.05;2.40;;;;;;;35.20;52.80;100443.75;5047386;28;65088;-39
2021/05/09 09:53:31;;;;;;;6.35;2.80;;;;;;;35.13;52.55;100450.25;5058900;28;70108;-37
2021/05/09 09:56:17;;;;;;;9.55;2.85;;;;;;;35.19;52.72;100447.53;5074696;27;65226;-38
2021/05/09 09:59:02;;;;;;;3.63;2.17;;;;;;;34.97;52.84;100418.47;5057586;28;69326;-37
2021/05/09 10:01:34;;;;;;;4.15;2.75;;;;;;;35.04;52.97;100440.84;5069467;28;65864;-36
2021/05/09 10:04:09;;;;;;;3.50;2.90;;;;;;;34.97;52.68;100451.16;5059787;27;69893;-36
2021/05/09 10:06:39;;;;;;;3.47;2.50;;;;;;;35.10;52.55;100467.13;5058373;28;65204;-36
2021/05/09 10:09:11;;;;;;;3.30;2.30;;;;;;;35.06;53.02;100471.44;5054572;27;69808;-37
2021/05/09 10:11:40;;;;;;;6.57;2.40;;;;;;;35.04;52.73;100484.47;5052651;28;66340;-35
2021/05/09 10:14:11;;;;;;;8.45;2.50;;;;;;;35.01;52.67;100495.06;5044579;28;70043;-36
2021/05/09 10:16:47;;;;;;;3.57;2.60;;;;;;;35.01;52.85;100517.69;5059583;28;66810;-37
2021/05/09 10:19:23;;;;;;;7.78;2.63;;;;;;;34.92;52.46;100509.16;5056852;28;68920;-36
2021/05/09 10:21:55;;;;;;;11.95;2.60;;;;;;;34.96;53.29;100514.91;5075093;28;65511;-36
2021/05/09 10:24:26;;;;;;;4.30;3.10;;;;;;;34.97;53.05;100519.28;5054273;28;70335;-37
2021/05/09 10:27:07;;;;;;;8.60;2.90;;;;;;;34.96;53.26;100520.34;5056505;28;66624;-37
2021/05/09 10:29:41;;;;;;;7.95;3.10;;;;;;;34.97;53.11;100527.47;5047797;28;70305;-37
2021/05/09 10:32:20;;;;;;;10.60;3.08;;;;;;;34.88;52.89;100529.84;5052805;28;66513;-36
2021/05/09 10:34:55;;;;;;;11.38;2.85;;;;;;;34.89;53.10;100525.22;5058907;27;69636;-37
2021/05/09 10:37:47;;;;;;;6.70;2.65;;;;;;;34.86;52.94;100515.63;5061651;28;66897;-37
2021/05/09 10:40:17;;;;;;;9.73;2.97;;;;;;;34.77;53.02;100510.88;5064293;28;69384;-37
2021/05/09 10:43:11;;;;;;;5.80;2.58;;;;;;;34.65;53.25;100498.22;5062532;28;66087;-37
2021/05/09 10:45:41;;;;;;;10.60;3.15;;;;;;;34.80;53.20;100524.00;5065463;28;70222;-39
2021/05/09 10:51:04;;;;;;;3.17;2.78;;;;;;;34.72;53.30;100529.94;5055771;28;70453;-38
2021/05/09 10:53:37;;;;;;;5.57;3.30;;;;;;;34.75;53.43;100552.03;5063847;28;66591;-38
2021/05/09 10:56:14;;;;;;;8.98;3.30;;;;;;;34.77;53.35;100554.47;5056715;27;69768;-37
2021/05/09 10:58:53;;;;;;;5.45;2.95;;;;;;;34.62;53.58;100547.78;5061109;28;65949;-37
2021/05/09 11:01:29;;;;;;;7.95;3.10;;;;;;;34.74;53.09;100571.34;5056414;28;69810;-36
2021/05/09 11:04:02;;;;;;;7.68;3.05;;;;;;;34.71;53.20;100578.13;5060462;28;66133;-39
2021/05/09 11:06:34;;;;;;;5.25;2.88;;;;;;;34.67;53.29;100583.25;5056808;28;70471;-37
2021/05/09 11:09:08;;;;;;;7.95;3.35;;;;;;;34.64;53.55;100594.66;5051375;28;64945;-37
2021/05/09 11:11:38;;;;;;;4.97;2.92;;;;;;;34.62;53.43;100588.63;5047200;28;69872;-37
2021/05/09 11:14:09;;;;;;;6.40;2.80;;;;;;;34.61;53.57;100595.19;5047657;28;65951;-37
2021/05/09 11:16:43;;;;;;;9.45;3.08;;;;;;;34.58;53.55;100601.13;5059034;28;69046;-37
2021/05/09 11:19:17;;;;;;;5.47;2.75;;;;;;;34.53;53.65;100583.88;5049935;28;66519;-37
2021/05/09 11:21:50;;;;;;;6.57;2.72;;;;;;;34.40;53.73;100563.25;5056961;28;69836;-37
2021/05/09 11:24:32;;;;;;;5.95;3.05;;;;;;;34.53;54.01;100587.41;5054027;28;64314;-36
2021/05/09 11:27:20;;;;;;;9.63;3.83;;;;;;;34.47;54.08;100583.78;5054884;28;69932;-37
2021/05/09 11:29:53;;;;;;;6.72;3.42;;;;;;;34.55;53.87;100589.88;5051058;28;65279;-36
2021/05/09 11:32:23;;;;;;;;;;;;;;;34.41;54.42;100579.38;5050353;28;70007;-36
2021/05/09 11:35:02;;;;;;;11.88;3.35;;;;;;;34.47;54.17;100588.41;5051249;28;66565;-37
2021/05/09 11:37:39;;;;;;;15.85;3.28;;;;;;;34.52;54.21;100593.94;5049437;28;69843;-37
2021/05/09 11:40:12;;;;;;;8.52;3.20;;;;;;;34.47;53.91;100588.41;5056923;28;66300;-39
2021/05/09 11:42:44;;;;;;;10.48;3.65;;;;;;;34.44;54.28;100591.66;5054609;28;69170;-37
2021/05/09 11:45:13;;;;;;;4.83;3.40;;;;;;;34.42;54.23;100586.44;5067964;28;66082;-37
2021/05/09 11:47:44;;;;;;;7.03;3.40;;;;;;;34.40;54.13;100590.50;5061934;27;69699;-37
2021/05/09 11:50:18;;;;;;;5.70;3.08;;;;;;;34.40;54.50;100593.22;5048621;28;66475;-37
2021/05/09 11:52:50;;;;;;;6.65;3.03;;;;;;;34.30;54.43;100587.63;5054516;28;69936;-37
2021/05/09 11:55:22;;;;;;;2.97;2.65;;;;;;;34.33;54.56;100614.38;5046149;28;65497;-36